Time;durP1;ratioP1;P1;durP2;ratioP2;P2;SDS_P1;SDS_P2;PMS_P1;PMS_P2;Temp;Humidity;BMP_temperature;BMP_pressure;BME280_temperature;BME280_humidity;BME280_pressure;Samples;Min_cycle;Max_cycle;Signal;HPM_P1;HPM_P2
2023/10/14 00:02:53;;;;;;;9.07;1.83;;;17.70;99.90;;;;;;10544442;28;20500;-36
2023/10/14 00:07:54;;;;;;;11.27;1.90;;;17.00;99.90;;;;;;10548112;28;20709;-40
2023/10/14 00:12:56;;;;;;;13.00;3.13;;;16.30;99.90;;;;;;10545493;28;20105;-32
2023/10/14 00:18:00;;;;;;;16.97;1.70;;;16.20;99.90;;;;;;10545077;28;20076;-32
2023/10/14 00:23:01;;;;;;;5.80;1.40;;;17.40;99.90;;;;;;10553575;28;20044;-34
2023/10/14 00:28:12;;;;;;;6.97;1.23;;;18.20;97.20;;;;;;10560710;28;20568;-43
2023/10/14 00:33:15;;;;;;;13.60;2.53;;;16.80;99.90;;;;;;10558776;28;20073;-36
2023/10/14 00:38:17;;;;;;;8.27;1.83;;;18.10;99.90;;;;;;10532871;28;20486;-35
2023/10/14 00:43:20;;;;;;;11.27;2.47;;;17.00;99.90;;;;;;10549060;28;20047;-33
2023/10/14 00:48:27;;;;;;;13.80;2.20;;;17.10;99.90;;;;;;10536379;28;20827;-35
2023/10/14 00:53:30;;;;;;;17.40;2.72;;;16.30;99.90;;;;;;10543936;28;20040;-35
2023/10/14 00:58:39;;;;;;;;;;;15.80;99.90;;;;;;10550218;28;20141;-33
2023/10/14 01:03:43;;;;;;;5.20;1.25;;;15.40;99.90;;;;;;10534243;28;19930;-31
2023/10/14 01:08:48;;;;;;;5.88;1.45;;;17.50;99.90;;;;;;10542454;28;20032;-34
2023/10/14 01:13:51;;;;;;;10.85;2.30;;;17.70;99.90;;;;;;10525780;28;20044;-36
2023/10/14 01:18:55;;;;;;;13.23;2.35;;;17.30;99.90;;;;;;10529070;28;20084;-34
2023/10/14 01:23:59;;;;;;;10.90;1.75;;;16.60;99.90;;;;;;10536205;28;20075;-34
2023/10/14 01:29:07;;;;;;;7.95;1.27;;;16.80;99.90;;;;;;10536537;28;20420;-32
2023/10/14 01:34:19;;;;;;;10.57;1.42;;;16.70;99.90;;;;;;10536860;28;20047;-41
2023/10/14 01:39:26;;;;;;;7.97;1.45;;;15.80;99.90;;;;;;10536291;28;20048;-43
2023/10/14 01:44:28;;;;;;;13.60;1.88;;;16.10;99.90;;;;;;10538156;28;20062;-33
2023/10/14 01:49:30;;;;;;;14.77;2.17;;;15.20;99.90;;;;;;10533841;28;20057;-35
2023/10/14 01:54:33;;;;;;;10.13;1.73;;;16.80;99.90;;;;;;10539446;28;20501;-33
2023/10/14 01:59:35;;;;;;;7.93;1.60;;;15.50;99.20;;;;;;10540618;28;20393;-39
2023/10/14 02:04:38;;;;;;;5.20;1.00;;;17.10;99.90;;;;;;10534932;28;20113;-34
2023/10/14 02:09:41;;;;;;;5.68;1.45;;;17.30;99.90;;;;;;10544391;28;20053;-44
2023/10/14 02:14:44;;;;;;;7.75;1.45;;;16.20;99.90;;;;;;10551389;28;20059;-37
2023/10/14 02:19:49;;;;;;;;;;;17.60;99.90;;;;;;10537931;28;20059;-36
2023/10/14 02:24:56;;;;;;;13.77;1.38;;;17.20;99.90;;;;;;10533254;28;19927;-33
2023/10/14 02:29:58;;;;;;;7.63;1.23;;;16.10;99.90;;;;;;10532504;28;20144;-32
2023/10/14 02:35:00;;;;;;;10.45;1.40;;;16.30;99.90;;;;;;10535460;28;20075;-35
2023/10/14 02:40:08;;;;;;;8.70;1.23;;;16.70;94.10;;;;;;10534458;28;20648;-33
2023/10/14 02:45:12;;;;;;;9.45;2.40;;;16.60;99.90;;;;;;10539593;28;20047;-39
2023/10/14 02:50:14;;;;;;;10.32;1.30;;;16.80;99.90;;;;;;10538479;28;20051;-36
2023/10/14 02:55:21;;;;;;;14.15;1.80;;;15.90;99.90;;;;;;10549726;28;20040;-35
2023/10/14 03:15:38;;;;;;;7.45;1.30;;;17.20;99.90;;;;;;10555315;27;20115;-41
2023/10/14 03:20:43;;;;;;;5.88;1.13;;;17.50;99.90;;;;;;10568425;28;20077;-35
2023/10/14 03:25:47;;;;;;;11.52;1.98;;;16.70;99.90;;;;;;10575658;28;20101;-35
2023/10/14 03:30:56;;;;;;;15.48;2.15;;;16.60;99.90;;;;;;10566183;28;20098;-37
2023/10/14 03:36:03;;;;;;;13.30;2.05;;;16.10;92.80;;;;;;10567420;28;20069;-33
2023/10/14 03:41:16;;;;;;;12.65;1.30;;;15.90;87.70;;;;;;10563497;28;20836;-35
2023/10/14 03:46:29;;;;;;;16.13;2.55;;;16.40;99.90;;;;;;10561004;28;20485;-36
2023/10/14 03:51:31;;;;;;;9.02;1.10;;;17.40;99.90;;;;;;10567571;28;20056;-33
2023/10/14 03:56:34;;;;;;;10.53;2.03;;;17.80;99.90;;;;;;10565734;28;20089;-34
2023/10/14 04:01:43;;;;;;;8.20;1.25;;;16.70;99.90;;;;;;10567253;28;20050;-35
2023/10/14 04:06:51;;;;;;;14.35;3.03;;;16.80;99.90;;;;;;10567285;28;20093;-37
2023/10/14 04:11:58;;;;;;;11.65;1.63;;;16.40;99.90;;;;;;10566927;28;20156;-37
2023/10/14 04:17:10;;;;;;;10.73;2.53;;;16.40;98.80;;;;;;10566761;28;20055;-42
2023/10/14 04:22:27;;;;;;;3.75;0.82;;;15.70;99.90;;;;;;10563993;28;20109;-36
2023/10/14 04:27:35;;;;;;;18.75;2.35;;;16.30;99.90;;;;;;10542876;28;20564;-31
2023/10/14 04:32:46;;;;;;;15.13;2.10;;;16.50;99.90;;;;;;10535666;28;20139;-45
2023/10/14 04:37:57;;;;;;;12.88;1.40;;;16.40;93.80;;;;;;10536109;28;20055;-38
2023/10/14 04:42:59;;;;;;;18.50;2.05;;;16.40;99.90;;;;;;10539954;28;20043;-38
2023/10/14 04:48:05;;;;;;;12.60;1.60;;;16.40;99.90;;;;;;10532838;28;20044;-39
2023/10/14 04:53:07;;;;;;;9.18;1.83;;;17.50;99.90;;;;;;10535511;28;20132;-35
2023/10/14 04:58:14;;;;;;;12.82;1.65;;;16.30;99.90;;;;;;10545328;28;20047;-41
2023/10/14 05:03:20;;;;;;;6.35;1.42;;;15.20;99.90;;;;;;10536541;28;20040;-35
2023/10/14 05:08:24;;;;;;;19.10;2.17;;;16.10;97.80;;;;;;10546552;28;20392;-35
2023/10/14 05:13:31;;;;;;;18.83;2.40;;;16.30;92.80;;;;;;10535355;28;20492;-35
2023/10/14 05:18:35;;;;;;;9.52;1.80;;;16.90;99.90;;;;;;10542459;28;20214;-38
2023/10/14 05:23:38;;;;;;;19.92;2.60;;;18.60;99.20;;;;;;10537491;28;20576;-42
2023/10/14 05:28:42;;;;;;;8.25;1.40;;;16.00;99.70;;;;;;10545303;28;20054;-33
2023/10/14 05:33:48;;;;;;;7.22;1.73;;;16.00;99.90;;;;;;10531622;28;20142;-40
2023/10/14 05:38:50;;;;;;;6.72;1.70;;;16.10;99.90;;;;;;10526590;28;20044;-36
2023/10/14 05:43:52;;;;;;;11.13;1.60;;;18.00;97.10;;;;;;10537482;28;20450;-37
2023/10/14 05:48:56;;;;;;;15.13;1.90;;;15.70;99.50;;;;;;10530872;28;20047;-32
2023/10/14 05:53:58;;;;;;;11.60;1.73;;;15.20;99.90;;;;;;10531984;28;20131;-33
2023/10/14 05:59:00;;;;;;;6.63;1.50;;;15.80;99.90;;;;;;10540786;28;20047;-35
2023/10/14 06:04:03;;;;;;;13.65;2.08;;;18.00;88.40;;;;;;10541353;28;20055;-33
2023/10/14 06:09:07;;;;;;;14.10;1.90;;;14.90;94.60;;;;;;10541169;28;20055;-41
2023/10/14 06:14:10;;;;;;;7.85;1.52;;;15.10;92.90;;;;;;10532249;28;20044;-36
2023/10/14 06:19:17;;;;;;;13.82;2.22;;;16.90;99.90;;;;;;10539024;28;20055;-33
2023/10/14 06:24:19;;;;;;;7.72;1.85;;;16.20;99.90;;;;;;10539919;28;20072;-32
2023/10/14 06:29:21;;;;;;;17.77;2.67;;;17.30;95.00;;;;;;10539971;28;20044;-36
2023/10/14 06:34:26;;;;;;;3.30;1.20;;;15.70;91.30;;;;;;10533976;28;20043;-42
2023/10/14 06:39:28;;;;;;;13.15;1.95;;;16.70;92.50;;;;;;10532569;28;20075;-33
2023/10/14 06:44:32;;;;;;;15.20;3.33;;;16.20;91.70;;;;;;10538984;28;20119;-34
2023/10/14 06:49:36;;;;;;;11.95;1.95;;;16.30;85.40;;;;;;10532193;28;20054;-36
2023/10/14 06:54:41;;;;;;;14.15;1.92;;;15.70;99.90;;;;;;10545352;28;20469;-33
2023/10/14 06:59:42;;;;;;;16.10;2.65;;;15.80;93.90;;;;;;10532575;28;20048;-41
2023/10/14 07:04:46;;;;;;;16.03;2.23;;;16.40;99.00;;;;;;10533464;28;20504;-34
2023/10/14 07:09:47;;;;;;;11.95;1.35;;;15.30;93.30;;;;;;10531820;28;20477;-34
2023/10/14 07:14:49;;;;;;;19.07;2.27;;;16.30;99.90;;;;;;10534300;28;20059;-35
2023/10/14 07:19:52;;;;;;;6.17;1.30;;;16.60;80.60;;;;;;10536859;28;20041;-42
2023/10/14 07:24:54;;;;;;;7.13;1.42;;;17.90;97.40;;;;;;10533074;28;20113;-39
2023/10/14 07:29:56;;;;;;;11.80;1.80;;;16.80;99.90;;;;;;10548945;28;20077;-34
2023/10/14 07:35:02;;;;;;;7.37;1.90;;;15.70;95.60;;;;;;10532389;28;20502;-33
2023/10/14 07:40:05;;;;;;;15.60;1.65;;;16.80;99.40;;;;;;10534840;28;20056;-38
2023/10/14 07:45:10;;;;;;;12.38;2.03;;;16.60;98.10;;;;;;10532541;28;20044;-37
2023/10/14 07:50:13;;;;;;;17.75;2.15;;;15.40;99.90;;;;;;10537324;28;20052;-40
2023/10/14 07:55:19;;;;;;;15.05;2.13;;;15.20;99.90;;;;;;10542979;28;20420;-36
2023/10/14 08:00:26;;;;;;;11.32;2.20;;;15.60;99.90;;;;;;10535762;28;20055;-36
2023/10/14 08:05:29;;;;;;;29.30;3.35;;;16.10;98.70;;;;;;10539464;28;20048;-35
2023/10/14 08:10:31;;;;;;;13.95;2.25;;;15.10;99.90;;;;;;10537904;28;20846;-35
2023/10/14 08:15:34;;;;;;;8.10;1.53;;;16.80;99.70;;;;;;10539143;28;20072;-32
2023/10/14 08:20:38;;;;;;;7.65;1.25;;;16.90;99.90;;;;;;10538206;28;20080;-35
2023/10/14 08:25:42;;;;;;;11.00;2.08;;;16.50;96.00;;;;;;10537710;28;20063;-35
2023/10/14 08:30:46;;;;;;;15.73;2.72;;;16.10;99.90;;;;;;10537645;28;20055;-38
2023/10/14 08:35:51;;;;;;;9.13;1.83;;;16.20;99.90;;;;;;10537676;28;20138;-32
2023/10/14 08:40:53;;;;;;;12.75;2.15;;;16.10;96.40;;;;;;10538426;28;20051;-33
2023/10/14 08:45:55;;;;;;;11.75;1.95;;;15.80;96.40;;;;;;10537189;28;20110;-37
2023/10/14 08:50:59;;;;;;;12.05;2.03;;;15.90;94.40;;;;;;10542291;28;20048;-32
2023/10/14 08:56:01;;;;;;;9.55;2.75;;;15.20;96.70;;;;;;10537002;28;20117;-34
2023/10/14 09:01:05;;;;;;;12.68;1.73;;;18.30;77.70;;;;;;10536508;28;20094;-39
2023/10/14 09:06:08;;;;;;;14.40;1.83;;;15.80;89.40;;;;;;10536387;28;20048;-35
2023/10/14 09:11:26;;;;;;;4.65;1.23;;;16.10;99.90;;;;;;10536400;28;20067;-37
2023/10/14 09:16:28;;;;;;;12.82;1.98;;;17.30;99.10;;;;;;10536232;28;20040;-34
2023/10/14 09:21:32;;;;;;;;;;;16.40;91.30;;;;;;10536030;28;20044;-36
2023/10/14 09:26:38;;;;;;;6.22;1.80;;;17.50;78.10;;;;;;10535008;28;20380;-33
2023/10/14 09:31:44;;;;;;;9.65;2.67;;;17.20;85.70;;;;;;10535521;28;20644;-36
2023/10/14 09:36:51;;;;;;;8.82;2.08;;;15.60;98.80;;;;;;10535172;28;20052;-34
2023/10/14 09:41:54;;;;;;;7.65;1.40;;;16.20;90.40;;;;;;10535359;28;20135;-38
2023/10/14 09:46:57;;;;;;;10.88;1.83;;;16.60;95.80;;;;;;10533632;28;20091;-35
2023/10/14 09:52:03;;;;;;;6.50;1.38;;;16.00;99.90;;;;;;10534316;28;20509;-33
2023/10/14 09:57:06;;;;;;;10.38;1.70;;;16.40;99.90;;;;;;10534209;28;20052;-39
2023/10/14 10:02:09;;;;;;;5.70;1.58;;;16.50;99.90;;;;;;10533903;28;20443;-37
2023/10/14 10:07:27;;;;;;;9.38;1.85;;;15.70;88.20;;;;;;10534898;28;20097;-36
2023/10/14 10:12:31;;;;;;;9.15;1.70;;;16.70;91.70;;;;;;10535920;28;20051;-32
2023/10/14 10:17:35;;;;;;;18.45;2.33;;;16.30;76.90;;;;;;10542385;28;20079;-40
2023/10/14 10:22:50;;;;;;;7.70;1.15;;;16.50;79.70;;;;;;10532347;28;20140;-35
2023/10/14 10:27:55;;;;;;;17.50;1.83;;;16.70;93.50;;;;;;10533625;28;20044;-34
2023/10/14 10:33:11;;;;;;;10.65;1.58;;;16.70;95.10;;;;;;10532661;28;20078;-34
2023/10/14 10:38:14;;;;;;;16.77;2.47;;;16.40;99.30;;;;;;10541410;28;20456;-35
2023/10/14 10:43:17;;;;;;;6.68;1.48;;;16.80;78.80;;;;;;10540180;28;20048;-37
2023/10/14 10:48:19;;;;;;;13.50;2.15;;;16.50;99.30;;;;;;10531809;28;20070;-30
2023/10/14 10:53:25;;;;;;;9.90;1.73;;;16.00;95.60;;;;;;10533651;28;20050;-37
2023/10/14 10:58:27;;;;;;;8.13;2.03;;;17.50;99.90;;;;;;10531983;28;20415;-32
2023/10/14 11:03:29;;;;;;;;;;;16.90;86.00;;;;;;10538364;28;20138;-32
2023/10/14 11:08:35;;;;;;;5.53;1.25;;;16.20;91.30;;;;;;10532197;28;19924;-33
2023/10/14 11:13:37;;;;;;;9.45;1.20;;;15.90;95.70;;;;;;10526291;28;20048;-33
2023/10/14 11:18:47;;;;;;;6.60;1.63;;;16.00;99.90;;;;;;10532188;28;20047;-35
2023/10/14 11:23:52;;;;;;;8.30;1.38;;;16.90;89.40;;;;;;10531312;28;20416;-34
2023/10/14 11:28:54;;;;;;;7.97;2.00;;;15.30;73.80;;;;;;10531404;28;20047;-41
2023/10/14 11:34:01;;;;;;;3.70;1.00;;;15.90;97.10;;;;;;10537873;28;20055;-41
2023/10/14 11:39:13;;;;;;;6.97;1.10;;;16.70;89.50;;;;;;10543617;28;20071;-35
2023/10/14 11:44:17;;;;;;;6.88;1.00;;;16.30;98.00;;;;;;10540704;28;20063;-34
2023/10/14 11:49:19;;;;;;;11.90;2.15;;;17.80;98.40;;;;;;10543640;28;20084;-33
2023/10/14 11:54:24;;;;;;;5.32;1.50;;;16.40;99.10;;;;;;10539510;28;20048;-33
2023/10/14 11:59:25;;;;;;;13.38;1.80;;;16.90;91.20;;;;;;10546109;28;20048;-33
2023/10/14 12:04:28;;;;;;;5.68;1.42;;;16.70;86.70;;;;;;10538844;28;20520;-34
2023/10/14 12:09:32;;;;;;;7.28;1.48;;;16.90;88.80;;;;;;10538900;28;20071;-37
2023/10/14 12:14:34;;;;;;;5.03;1.20;;;16.70;93.30;;;;;;10538281;28;20386;-36
2023/10/14 12:19:37;;;;;;;12.83;1.43;;;17.20;97.70;;;;;;10542582;28;20035;-34
2023/10/14 12:24:40;;;;;;;9.90;1.98;;;17.60;79.50;;;;;;10538056;28;20048;-35
2023/10/14 12:29:42;;;;;;;11.23;1.67;;;16.60;93.90;;;;;;10537686;28;20052;-34
2023/10/14 12:34:44;;;;;;;8.43;1.17;;;17.70;96.10;;;;;;10538112;28;20083;-37
2023/10/14 12:39:53;;;;;;;6.73;1.47;;;16.70;83.40;;;;;;10537583;28;20554;-35
2023/10/14 12:44:55;;;;;;;5.78;1.05;;;18.20;93.10;;;;;;10535378;28;20132;-35
2023/10/14 12:49:57;;;;;;;6.87;1.37;;;16.60;94.00;;;;;;10549246;28;20496;-31
2023/10/14 12:55:08;;;;;;;8.67;1.33;;;17.00;78.20;;;;;;10536358;28;20094;-36
2023/10/14 13:00:18;;;;;;;9.25;1.70;;;17.70;95.30;;;;;;10542141;28;20040;-37
2023/10/14 13:05:20;;;;;;;6.25;1.08;;;17.30;92.00;;;;;;10536648;28;20047;-34
2023/10/14 13:10:24;;;;;;;11.55;1.63;;;16.80;85.70;;;;;;10535723;28;20134;-32
2023/10/14 13:15:28;;;;;;;11.02;2.15;;;16.40;98.20;;;;;;10535640;28;20067;-33
2023/10/14 13:20:32;;;;;;;5.10;1.30;;;17.10;67.90;;;;;;10533185;28;20055;-39
2023/10/14 13:25:37;;;;;;;8.50;1.08;;;17.50;79.80;;;;;;10541027;28;20123;-29
2023/10/14 13:30:45;;;;;;;8.73;1.30;;;17.60;90.70;;;;;;10533528;28;20048;-32
2023/10/14 13:35:46;;;;;;;5.47;1.17;;;17.10;74.20;;;;;;10534968;28;20052;-33
2023/10/14 13:40:50;;;;;;;13.07;1.60;;;17.30;91.90;;;;;;10534797;28;20859;-36
2023/10/14 13:45:52;;;;;;;8.75;1.30;;;17.10;81.00;;;;;;10533806;28;20062;-31
2023/10/14 13:50:55;;;;;;;5.80;1.33;;;16.60;94.20;;;;;;10534145;28;20052;-33
2023/10/14 13:55:58;;;;;;;6.25;1.33;;;17.50;91.30;;;;;;10538385;28;20051;-37
2023/10/14 14:01:01;;;;;;;7.53;1.02;;;17.10;71.30;;;;;;10542279;28;20067;-32
2023/10/14 14:06:07;;;;;;;5.57;1.40;;;17.80;79.10;;;;;;10533882;28;20167;-32
2023/10/14 14:11:10;;;;;;;6.03;1.00;;;17.40;69.20;;;;;;10538404;28;20051;-33
2023/10/14 14:16:12;;;;;;;13.32;1.75;;;17.60;82.90;;;;;;10535219;28;20087;-34
2023/10/14 14:21:14;;;;;;;8.47;1.17;;;17.70;77.60;;;;;;10541589;28;20059;-33
2023/10/14 14:26:18;;;;;;;13.05;1.55;;;18.00;72.70;;;;;;10532354;28;20441;-32
2023/10/14 14:31:20;;;;;;;6.38;1.48;;;16.80;73.80;;;;;;10532923;28;20056;-39
2023/10/14 14:36:22;;;;;;;11.57;1.73;;;16.40;83.70;;;;;;10532718;28;20070;-36
2023/10/14 14:41:26;;;;;;;6.13;1.33;;;17.10;85.30;;;;;;10532510;28;20040;-39
2023/10/14 14:46:29;;;;;;;6.05;1.13;;;16.90;89.30;;;;;;10542246;28;20126;-33
2023/10/14 14:51:31;;;;;;;;;;;17.60;96.80;;;;;;10534313;28;20858;-33
2023/10/14 14:56:34;;;;;;;5.43;1.27;;;17.70;79.90;;;;;;10538392;28;19923;-35
2023/10/14 15:01:41;;;;;;;7.65;0.70;;;17.80;81.20;;;;;;10546630;28;20398;-39
2023/10/14 15:07:17;;;;;;;2.55;1.02;;;18.50;88.40;;;;;;10550924;28;20059;-37
2023/10/14 15:12:44;;;;;;;3.28;1.02;;;17.90;62.90;;;;;;10544780;28;20153;-32
2023/10/14 15:17:50;;;;;;;5.28;1.05;;;17.70;61.50;;;;;;10543297;28;20423;-37
2023/10/14 15:22:52;;;;;;;7.63;1.85;;;17.20;71.70;;;;;;10538541;28;20054;-35
2023/10/14 15:27:56;;;;;;;5.13;1.00;;;16.60;66.30;;;;;;10541002;28;20047;-32
2023/10/14 15:32:58;;;;;;;5.70;1.35;;;18.90;91.30;;;;;;10531987;28;20045;-31
2023/10/14 15:38:01;;;;;;;9.00;1.63;;;17.60;91.40;;;;;;10540869;28;20373;-32
2023/10/14 15:43:05;;;;;;;9.35;1.38;;;15.70;95.30;;;;;;10532524;28;20048;-39
2023/10/14 15:48:12;;;;;;;8.05;1.15;;;16.60;96.70;;;;;;10546449;28;20401;-40
2023/10/14 15:53:15;;;;;;;9.80;1.20;;;16.80;70.60;;;;;;10539505;28;20044;-37
2023/10/14 15:58:19;;;;;;;2.83;0.60;;;15.40;76.90;;;;;;10539608;28;20095;-33
2023/10/14 16:03:21;;;;;;;11.23;1.60;;;17.30;86.20;;;;;;10532981;28;20066;-34
2023/10/14 16:08:24;;;;;;;5.25;1.02;;;16.20;63.90;;;;;;10533118;28;20054;-31
2023/10/14 16:13:28;;;;;;;7.00;1.70;;;16.80;82.00;;;;;;10542334;28;20052;-34
2023/10/14 16:18:31;;;;;;;6.22;1.27;;;18.20;79.80;;;;;;10549222;28;20093;-32
2023/10/14 16:23:33;;;;;;;7.47;1.27;;;17.70;92.90;;;;;;10542682;28;20044;-37
2023/10/14 16:28:38;;;;;;;8.10;1.63;;;17.00;82.80;;;;;;10560805;28;20052;-40
2023/10/14 16:33:39;;;;;;;8.15;1.05;;;15.50;83.50;;;;;;10533637;28;20500;-33
2023/10/14 16:38:43;;;;;;;9.13;1.70;;;15.60;88.40;;;;;;10531225;28;20079;-37
2023/10/14 16:43:46;;;;;;;4.30;1.00;;;15.30;85.40;;;;;;10535762;28;20456;-37
2023/10/14 16:48:48;;;;;;;10.85;1.70;;;16.80;72.10;;;;;;10545741;28;20051;-33
2023/10/14 16:53:50;;;;;;;6.90;1.40;;;16.50;90.00;;;;;;10546173;28;20475;-42
2023/10/14 16:58:54;;;;;;;6.95;1.10;;;16.60;67.40;;;;;;10538050;28;20132;-36
2023/10/14 17:03:59;;;;;;;9.40;1.33;;;17.40;95.10;;;;;;10537311;28;20408;-33
2023/10/14 17:09:06;;;;;;;10.18;1.25;;;16.30;75.80;;;;;;10537552;28;20100;-38
2023/10/14 17:14:09;;;;;;;6.85;1.58;;;15.80;91.80;;;;;;10538064;28;20481;-36
2023/10/14 17:19:11;;;;;;;11.30;1.80;;;15.90;95.60;;;;;;10535723;28;20117;-33
2023/10/14 17:24:14;;;;;;;9.77;1.40;;;14.70;97.00;;;;;;10539184;28;20048;-33
2023/10/14 17:29:18;;;;;;;12.52;1.60;;;16.10;95.00;;;;;;10550049;28;20044;-33
2023/10/14 17:34:21;;;;;;;10.50;1.92;;;16.30;95.10;;;;;;10545807;28;20139;-40
2023/10/14 17:39:23;;;;;;;6.18;1.10;;;16.10;92.90;;;;;;10531950;28;20130;-34
2023/10/14 17:44:28;;;;;;;7.85;1.75;;;16.90;81.70;;;;;;10542137;28;20048;-37
2023/10/14 17:49:31;;;;;;;11.88;2.10;;;16.70;79.00;;;;;;10538998;28;20079;-34
2023/10/14 17:54:32;;;;;;;10.40;1.17;;;17.20;65.60;;;;;;10539666;28;20044;-34
2023/10/14 17:59:36;;;;;;;8.27;1.67;;;17.10;94.10;;;;;;10530029;28;20135;-39
2023/10/14 18:04:38;;;;;;;6.68;1.02;;;15.40;97.10;;;;;;10524850;28;20147;-31
2023/10/14 18:09:42;;;;;;;4.90;1.17;;;17.00;76.40;;;;;;10529778;28;20043;-35
2023/10/14 18:14:45;;;;;;;5.95;0.80;;;17.10;69.40;;;;;;10531800;28;20060;-34
2023/10/14 18:19:47;;;;;;;5.38;1.27;;;18.70;86.80;;;;;;10540596;28;20048;-40
2023/10/14 18:24:49;;;;;;;5.63;0.83;;;18.00;93.80;;;;;;10535597;28;20077;-30
2023/10/14 18:29:56;;;;;;;9.25;1.08;;;18.40;76.40;;;;;;10528814;28;20048;-33
2023/10/14 18:34:57;;;;;;;5.78;1.40;;;18.20;90.50;;;;;;10534823;28;20496;-38
2023/10/14 18:40:00;;;;;;;3.13;0.90;;;17.00;90.70;;;;;;10536474;28;20081;-32
2023/10/14 18:45:04;;;;;;;7.32;1.20;;;16.50;96.80;;;;;;10545745;28;20827;-33
2023/10/14 18:50:07;;;;;;;6.50;1.20;;;15.20;78.30;;;;;;10536361;28;20488;-42
2023/10/14 18:55:16;;;;;;;7.35;1.25;;;16.70;84.00;;;;;;10549760;28;20040;-38
2023/10/14 19:00:20;;;;;;;8.63;1.15;;;16.80;83.80;;;;;;10531160;28;20041;-41
2023/10/14 19:05:26;;;;;;;8.68;1.67;;;17.20;92.70;;;;;;10535993;28;20055;-33
2023/10/14 19:10:31;;;;;;;10.48;2.33;;;17.90;90.80;;;;;;10532335;28;20040;-33
2023/10/14 19:15:35;;;;;;;12.40;1.27;;;17.10;91.90;;;;;;10530602;28;20048;-33
2023/10/14 19:20:39;;;;;;;6.10;1.05;;;15.10;97.30;;;;;;10535310;28;20051;-32
2023/10/14 19:25:43;;;;;;;4.13;1.63;;;19.00;85.10;;;;;;10541033;28;20056;-35
2023/10/14 19:30:46;;;;;;;7.72;1.35;;;16.50;91.40;;;;;;10530835;28;20043;-36
2023/10/14 19:35:51;;;;;;;11.00;0.95;;;16.40;69.80;;;;;;10538339;28;20048;-34
2023/10/14 19:41:00;;;;;;;4.35;0.95;;;16.80;84.20;;;;;;10543311;28;20048;-32
2023/10/14 19:46:08;;;;;;;8.23;1.20;;;16.50;97.50;;;;;;10529659;28;20130;-32
2023/10/14 19:51:11;;;;;;;5.47;0.88;;;16.30;88.00;;;;;;10537936;28;20040;-37
2023/10/14 19:56:14;;;;;;;6.22;1.73;;;16.20;99.00;;;;;;10534597;28;20488;-36
2023/10/14 20:01:17;;;;;;;8.30;0.85;;;16.70;93.10;;;;;;10553027;28;20130;-32
2023/10/14 20:06:21;;;;;;;3.30;1.20;;;16.10;87.90;;;;;;10538190;28;20055;-38
2023/10/14 20:11:23;;;;;;;7.05;1.10;;;15.40;77.20;;;;;;10539768;28;20055;-37
2023/10/14 20:16:26;;;;;;;3.90;0.80;;;15.60;99.90;;;;;;10542564;28;20051;-37
2023/10/14 20:21:29;;;;;;;9.13;1.33;;;15.90;77.10;;;;;;10541169;28;20071;-33
2023/10/14 20:26:31;;;;;;;5.97;0.88;;;16.10;83.10;;;;;;10540028;28;20396;-35
2023/10/14 20:31:36;;;;;;;9.20;1.30;;;16.80;90.80;;;;;;10541518;28;20048;-33
2023/10/14 20:36:37;;;;;;;5.13;0.90;;;15.70;65.00;;;;;;10538760;28;20497;-33
2023/10/14 20:41:39;;;;;;;6.30;1.30;;;16.50;92.20;;;;;;10537240;28;20040;-35
2023/10/14 20:46:43;;;;;;;4.77;1.37;;;17.50;91.50;;;;;;10535774;28;20055;-43
2023/10/14 20:51:45;;;;;;;4.90;0.98;;;16.50;84.20;;;;;;10539858;28;20353;-36
2023/10/14 20:56:46;;;;;;;6.50;0.93;;;16.50;59.80;;;;;;10546296;28;20036;-39
2023/10/14 21:01:50;;;;;;;3.20;0.90;;;17.60;93.10;;;;;;10530070;28;20170;-34
2023/10/14 21:06:52;;;;;;;8.05;1.38;;;16.30;81.10;;;;;;10539001;28;20055;-32
2023/10/14 21:11:54;;;;;;;4.63;1.10;;;15.10;76.10;;;;;;10534722;28;20060;-39
2023/10/14 21:16:58;;;;;;;7.27;1.67;;;16.00;88.20;;;;;;10540150;28;21656;-39
2023/10/14 21:22:00;;;;;;;11.82;1.02;;;17.70;70.10;;;;;;10550855;28;20127;-34
2023/10/14 21:27:02;;;;;;;5.80;1.15;;;15.40;92.30;;;;;;10546728;28;20493;-38
2023/10/14 21:32:05;;;;;;;5.65;0.90;;;14.90;94.60;;;;;;10535689;28;20066;-36
2023/10/14 21:37:09;;;;;;;4.95;1.00;;;16.30;96.10;;;;;;10546557;28;20455;-34
2023/10/14 21:42:11;;;;;;;6.68;1.10;;;16.60;93.90;;;;;;10540197;28;20058;-35
2023/10/14 21:47:14;;;;;;;7.03;1.20;;;16.60;92.70;;;;;;10523813;28;20047;-39
2023/10/14 21:52:16;;;;;;;5.70;1.25;;;16.40;77.40;;;;;;10541782;28;20057;-33
2023/10/14 21:57:18;;;;;;;4.15;1.10;;;13.40;96.00;;;;;;10539045;28;20058;-39
2023/10/14 22:02:21;;;;;;;8.32;1.08;;;13.90;90.00;;;;;;10540484;28;20048;-36
2023/10/14 22:07:25;;;;;;;4.85;1.00;;;14.50;99.30;;;;;;10538586;28;20051;-35
2023/10/14 22:12:28;;;;;;;2.53;0.70;;;14.90;90.40;;;;;;10541978;28;20048;-35
2023/10/14 22:17:31;;;;;;;5.57;0.60;;;15.30;99.90;;;;;;10532179;28;20043;-36
2023/10/14 22:22:33;;;;;;;8.32;1.17;;;17.50;91.60;;;;;;10536026;28;20052;-35
2023/10/14 22:27:35;;;;;;;3.07;0.60;;;17.10;75.80;;;;;;10533550;28;20055;-41
2023/10/14 22:32:38;;;;;;;5.93;1.00;;;15.30;93.10;;;;;;10532110;28;20085;-33
2023/10/14 22:37:40;;;;;;;4.20;1.20;;;15.10;91.10;;;;;;10532802;28;20098;-44
2023/10/14 22:42:43;;;;;;;5.57;1.23;;;15.90;97.30;;;;;;10538562;28;20092;-39
2023/10/14 22:47:47;;;;;;;6.20;1.23;;;14.70;93.90;;;;;;10537354;28;20055;-34
2023/10/14 22:52:52;;;;;;;6.80;1.58;;;14.70;99.90;;;;;;10532695;28;20047;-33
2023/10/14 22:57:54;;;;;;;9.30;1.30;;;14.20;95.30;;;;;;10532801;28;20403;-33
2023/10/14 23:02:57;;;;;;;4.03;0.73;;;14.10;97.60;;;;;;10537635;28;20052;-34
2023/10/14 23:08:09;;;;;;;3.10;0.63;;;14.40;92.80;;;;;;10539476;28;20052;-34
2023/10/14 23:13:12;;;;;;;8.90;0.90;;;15.50;83.90;;;;;;10532754;28;20106;-32
2023/10/14 23:18:15;;;;;;;4.88;1.00;;;15.00;92.20;;;;;;10534131;28;20393;-37
2023/10/14 23:23:18;;;;;;;6.13;1.00;;;15.30;92.20;;;;;;10535870;28;20184;-33
2023/10/14 23:28:20;;;;;;;;;;;15.30;95.80;;;;;;10532891;28;20404;-37
2023/10/14 23:33:23;;;;;;;8.13;0.95;;;15.70;99.10;;;;;;10539510;28;19955;-32
2023/10/14 23:38:26;;;;;;;4.47;0.85;;;14.50;86.00;;;;;;10556616;28;20480;-34
2023/10/14 23:43:27;;;;;;;3.22;0.77;;;14.50;97.80;;;;;;10540700;28;20055;-33
2023/10/14 23:48:31;;;;;;;3.53;0.80;;;14.80;99.60;;;;;;10540643;28;20587;-37
2023/10/14 23:53:34;;;;;;;5.50;0.52;;;15.90;92.90;;;;;;10543747;28;20039;-33
2023/10/14 23:58:36;;;;;;;3.72;0.70;;;14.40;92.20;;;;;;10544211;28;20470;-34
